createdAt,value
2018-08-20T00:02:08.177Z,75.10
2018-08-20T00:04:42.785Z,75.10
2018-08-20T00:07:12.100Z,75.00
2018-08-20T00:09:46.767Z,75.00
2018-08-20T00:12:18.482Z,74.60
2018-08-20T00:14:48.964Z,74.30
2018-08-20T00:17:18.256Z,74.40
2018-08-20T00:19:47.662Z,74.80
2018-08-20T00:22:16.903Z,73.80
2018-08-20T00:24:56.149Z,74.20
2018-08-20T00:27:25.357Z,74.30
2018-08-20T00:29:55.612Z,75.50
2018-08-20T00:32:26.885Z,78.10
2018-08-20T00:34:56.248Z,78.90
2018-08-20T00:37:28.955Z,78.50
2018-08-20T00:39:58.387Z,79.20
2018-08-20T00:42:28.510Z,79.80
2018-08-20T00:44:57.900Z,80.50
2018-08-20T00:47:27.110Z,80.20
2018-08-20T00:49:56.302Z,80.90
2018-08-20T00:52:25.502Z,80.90
2018-08-20T00:54:54.882Z,81.20
2018-08-20T00:57:24.084Z,80.80
2018-08-20T00:59:53.690Z,81.30
2018-08-20T01:02:29.145Z,82.10
2018-08-20T01:04:59.598Z,81.50
2018-08-20T01:07:30.904Z,79.90
2018-08-20T01:10:00.470Z,79.50
2018-08-20T01:12:29.713Z,80.90
2018-08-20T01:14:59.097Z,82.70
2018-08-20T01:17:28.389Z,83.40
2018-08-20T01:19:57.730Z,83.60
2018-08-20T01:22:27.086Z,82.20
2018-08-20T01:24:56.717Z,80.40
2018-08-20T01:27:26.786Z,81.40
2018-08-20T01:29:56.483Z,79.00
2018-08-20T01:32:25.940Z,76.60
2018-08-20T01:34:58.807Z,77.20
2018-08-20T01:37:27.990Z,78.30
2018-08-20T01:39:58.339Z,78.80
2018-08-20T01:42:27.580Z,79.40
2018-08-20T01:45:00.759Z,79.20
2018-08-20T01:47:29.970Z,79.60
2018-08-20T01:50:00.071Z,79.60
2018-08-20T01:52:29.292Z,78.70
2018-08-20T01:54:59.602Z,78.10
2018-08-20T01:57:28.848Z,78.00
2018-08-20T01:59:58.066Z,78.60
2018-08-20T02:02:28.341Z,78.60
2018-08-20T02:05:03.654Z,79.20
2018-08-20T02:07:36.268Z,81.10
2018-08-20T02:10:06.418Z,80.80
2018-08-20T02:12:40.797Z,80.50
2018-08-20T02:15:10.409Z,79.50
2018-08-20T02:17:39.664Z,79.20
2018-08-20T02:20:08.959Z,79.30
2018-08-20T02:22:38.184Z,77.60
2018-08-20T02:25:08.371Z,76.30
2018-08-20T02:27:38.043Z,74.50
2018-08-20T02:30:07.461Z,75.20
2018-08-20T02:32:37.118Z,76.00
2018-08-20T02:35:07.089Z,75.80
2018-08-20T02:37:42.375Z,75.40
2018-08-20T02:40:13.616Z,75.00
2018-08-20T02:42:42.901Z,75.20
2018-08-20T02:45:16.364Z,74.20
2018-08-20T02:47:46.237Z,72.60
2018-08-20T02:50:16.124Z,73.20
2018-08-20T02:52:45.908Z,74.10
2018-08-20T02:55:21.569Z,74.00
2018-08-20T02:57:50.806Z,73.20
2018-08-20T03:00:20.190Z,73.60
2018-08-20T03:02:49.425Z,74.90
2018-08-20T03:05:18.863Z,74.90
2018-08-20T03:07:48.372Z,75.30
2018-08-20T03:10:19.055Z,75.00
2018-08-20T03:12:48.281Z,74.60
2018-08-20T03:15:18.202Z,74.90
2018-08-20T03:17:47.426Z,75.40
2018-08-20T03:20:17.617Z,76.60
2018-08-20T03:22:46.852Z,75.60
2018-08-20T03:25:16.457Z,75.00
2018-08-20T03:27:46.461Z,75.50
2018-08-20T03:30:16.185Z,74.90
2018-08-20T03:32:46.610Z,74.90
2018-08-20T03:35:21.324Z,74.90
2018-08-20T03:37:53.001Z,76.30
2018-08-20T03:40:23.422Z,77.10
2018-08-20T03:42:52.901Z,77.60
2018-08-20T03:45:27.150Z,78.50
2018-08-20T03:47:59.519Z,79.60
2018-08-20T03:50:31.456Z,80.40
2018-08-20T03:53:01.853Z,80.40
2018-08-20T03:55:32.908Z,82.00
2018-08-20T03:58:03.838Z,80.50
2018-08-20T04:00:33.266Z,79.60
2018-08-20T04:03:03.031Z,80.00
2018-08-20T04:05:34.304Z,83.10
2018-08-20T04:08:03.889Z,84.10
2018-08-20T04:10:33.180Z,80.50
2018-08-20T04:13:02.823Z,80.00
2018-08-20T04:15:32.075Z,79.50
2018-08-20T04:18:02.787Z,80.90
2018-08-20T04:20:32.909Z,81.20
2018-08-20T04:23:02.363Z,83.80
2018-08-20T04:25:32.629Z,86.90
2018-08-20T04:28:02.106Z,87.10
2018-08-20T04:30:31.341Z,87.70
2018-08-20T04:33:02.822Z,85.40
2018-08-20T04:35:32.486Z,86.10
2018-08-20T04:38:01.684Z,84.20
2018-08-20T04:40:30.959Z,82.10
2018-08-20T04:43:00.570Z,82.40
2018-08-20T04:45:29.797Z,82.00
2018-08-20T04:47:59.014Z,81.60
2018-08-20T04:50:28.603Z,80.60
2018-08-20T04:52:58.285Z,80.90
2018-08-20T04:55:32.055Z,79.70
2018-08-20T04:58:02.582Z,80.30
2018-08-20T05:00:31.824Z,80.80
2018-08-20T05:03:01.795Z,81.10
2018-08-20T05:05:31.578Z,79.90
2018-08-20T05:08:00.833Z,76.70
2018-08-20T05:10:30.242Z,75.70
2018-08-20T05:12:59.471Z,74.40
2018-08-20T05:15:30.540Z,74.90
2018-08-20T05:18:01.626Z,74.20
2018-08-20T05:20:30.863Z,74.40
2018-08-20T05:23:00.364Z,74.50
2018-08-20T05:25:29.955Z,75.70
2018-08-20T05:27:59.198Z,75.70
2018-08-20T05:30:30.197Z,76.70
2018-08-20T05:32:59.488Z,75.30
2018-08-20T05:35:29.923Z,74.20
2018-08-20T05:37:59.306Z,74.20
2018-08-20T05:40:29.455Z,70.90
2018-08-20T05:42:59.146Z,72.10
2018-08-20T05:45:29.412Z,68.80
2018-08-20T05:47:59.010Z,70.60
2018-08-20T05:50:28.288Z,70.70
2018-08-20T05:52:58.135Z,68.70
2018-08-20T05:55:30.372Z,65.80
2018-08-20T05:57:59.586Z,62.50
2018-08-20T06:00:29.033Z,60.20
2018-08-20T06:02:58.298Z,57.80
2018-08-20T06:05:27.717Z,58.50
2018-08-20T06:07:57.549Z,58.30
2018-08-20T06:10:27.358Z,56.40
2018-08-20T06:12:56.887Z,51.60
2018-08-20T06:15:32.002Z,51.60
2018-08-20T06:18:01.279Z,52.20
2018-08-20T06:20:30.819Z,52.50
2018-08-20T06:23:00.163Z,50.90
2018-08-20T06:25:30.174Z,51.40
2018-08-20T06:27:59.563Z,50.80
2018-08-20T06:30:29.373Z,51.60
2018-08-20T06:32:58.703Z,49.30
2018-08-20T06:35:35.900Z,50.00
2018-08-20T06:38:05.373Z,48.50
2018-08-20T06:40:35.022Z,46.10
2018-08-20T06:43:04.326Z,47.00
2018-08-20T06:45:33.814Z,45.90
2018-08-20T06:48:03.131Z,45.20
2018-08-20T06:50:33.021Z,44.80
2018-08-20T06:53:02.644Z,43.40
2018-08-20T06:55:32.014Z,43.20
2018-08-20T06:58:02.727Z,43.40
2018-08-20T07:00:33.167Z,42.80
2018-08-20T07:03:04.929Z,42.50
2018-08-20T07:05:35.456Z,42.00
2018-08-20T07:08:04.962Z,41.50
2018-08-20T07:10:39.724Z,40.60
2018-08-20T07:13:20.976Z,41.70
2018-08-20T07:15:50.383Z,41.00
2018-08-20T07:18:19.914Z,40.20
2018-08-20T07:20:49.291Z,40.20
2018-08-20T07:23:20.677Z,40.20
2018-08-20T07:25:50.797Z,39.40
2018-08-20T07:28:20.608Z,39.40
2018-08-20T07:30:52.216Z,38.40
2018-08-20T07:33:21.494Z,38.50
2018-08-20T07:35:50.842Z,39.30
2018-08-20T07:38:21.541Z,38.00
2018-08-20T07:40:50.794Z,37.80
2018-08-20T07:43:20.213Z,37.00
2018-08-20T07:45:50.102Z,37.80
2018-08-20T07:48:20.114Z,35.40
2018-08-20T07:50:51.965Z,36.30
2018-08-20T07:53:22.906Z,36.60
2018-08-20T07:55:56.287Z,35.90
2018-08-20T07:58:25.522Z,35.20
2018-08-20T08:00:54.918Z,35.00
2018-08-20T08:03:29.377Z,34.00
2018-08-20T08:06:00.506Z,34.10
2018-08-20T08:08:30.388Z,33.60
2018-08-20T08:10:59.779Z,33.90
2018-08-20T08:13:29.043Z,33.50
2018-08-20T08:15:58.267Z,32.90
2018-08-20T08:18:27.543Z,33.00
2018-08-20T08:20:56.766Z,31.40
2018-08-20T08:23:26.383Z,31.10
2018-08-20T08:25:56.382Z,31.00
2018-08-20T08:28:25.652Z,30.60
2018-08-20T08:30:55.199Z,29.50
2018-08-20T08:33:26.472Z,29.30
2018-08-20T08:35:55.799Z,29.50
2018-08-20T08:38:25.814Z,29.00
2018-08-20T08:40:59.205Z,30.00
2018-08-20T08:43:29.348Z,29.50
2018-08-20T08:45:58.595Z,29.60
2018-08-20T08:48:27.832Z,29.70
2018-08-20T08:50:57.975Z,28.20
2018-08-20T08:53:28.692Z,27.60
2018-08-20T08:55:57.914Z,28.80
2018-08-20T08:58:27.169Z,27.70
2018-08-20T09:00:58.720Z,27.60
2018-08-20T09:03:31.330Z,26.60
2018-08-20T09:06:02.051Z,26.60
2018-08-20T09:08:31.335Z,26.70
2018-08-20T09:11:00.670Z,26.90
2018-08-20T09:13:30.801Z,26.70
2018-08-20T09:16:00.057Z,25.70
2018-08-20T09:18:29.792Z,25.50
2018-08-20T09:21:02.728Z,23.90
2018-08-20T09:23:32.038Z,23.40
2018-08-20T09:26:01.274Z,23.70
2018-08-20T09:28:31.693Z,23.80
2018-08-20T09:31:00.930Z,22.00
2018-08-20T09:33:30.679Z,22.70
2018-08-20T09:36:00.481Z,23.00
2018-08-20T09:38:29.741Z,22.80
2018-08-20T09:41:01.328Z,23.70
2018-08-20T09:43:30.547Z,22.20
2018-08-20T09:45:59.864Z,21.90
2018-08-20T09:48:29.467Z,20.80
2018-08-20T09:50:59.696Z,20.30
2018-08-20T09:53:29.053Z,20.60
2018-08-20T09:55:58.283Z,20.20
2018-08-20T09:58:28.002Z,19.30
2018-08-20T10:00:57.207Z,18.90
2018-08-20T10:03:26.424Z,19.00
2018-08-20T10:05:55.697Z,19.10
2018-08-20T10:08:25.995Z,19.30
2018-08-20T10:10:55.269Z,19.70
2018-08-20T10:13:25.932Z,20.50
2018-08-20T10:15:55.489Z,19.30
2018-08-20T10:18:25.158Z,19.70
2018-08-20T10:20:56.021Z,18.00
2018-08-20T10:23:26.100Z,18.30
2018-08-20T10:25:56.710Z,17.80
2018-08-20T10:28:27.004Z,17.60
2018-08-20T10:30:57.303Z,17.70
2018-08-20T10:33:26.590Z,18.30
2018-08-20T10:35:56.451Z,19.20
2018-08-20T10:38:26.339Z,19.60
2018-08-20T10:40:55.864Z,19.50
2018-08-20T10:43:25.514Z,19.20
2018-08-20T10:46:00.322Z,18.60
2018-08-20T10:48:30.135Z,18.20
2018-08-20T10:51:01.139Z,18.40
2018-08-20T10:53:35.274Z,17.80
2018-08-20T10:56:04.564Z,17.50
2018-08-20T10:58:34.122Z,17.40
2018-08-20T11:01:04.079Z,19.10
2018-08-20T11:03:37.051Z,18.10
2018-08-20T11:06:08.098Z,17.30
2018-08-20T11:08:37.380Z,17.60
2018-08-20T11:11:07.467Z,17.60
2018-08-20T11:13:40.147Z,16.30
2018-08-20T11:16:11.139Z,17.20
2018-08-20T11:18:41.313Z,16.00
2018-08-20T11:21:11.339Z,16.70
2018-08-20T11:23:44.292Z,16.40
2018-08-20T11:26:13.797Z,16.20
2018-08-20T11:28:45.361Z,17.60
2018-08-20T11:31:14.638Z,16.30
2018-08-20T11:33:49.989Z,16.00
2018-08-20T11:36:19.428Z,15.30
2018-08-20T11:38:49.004Z,15.50
2018-08-20T11:41:19.228Z,14.90
2018-08-20T11:43:48.510Z,15.40
2018-08-20T11:46:18.840Z,15.90
2018-08-20T11:48:48.890Z,15.50
2018-08-20T11:51:18.580Z,15.20
2018-08-20T11:53:49.022Z,15.70
2018-08-20T11:56:20.440Z,15.90
2018-08-20T11:58:50.310Z,15.40
2018-08-20T12:01:19.691Z,14.60
2018-08-20T12:03:54.184Z,14.40
2018-08-20T12:06:25.764Z,13.30
2018-08-20T12:08:55.650Z,13.80
2018-08-20T12:11:24.944Z,13.80
2018-08-20T12:13:55.432Z,14.30
2018-08-20T12:16:25.780Z,15.70
2018-08-20T12:18:55.832Z,15.70
2018-08-20T12:21:25.157Z,14.40
2018-08-20T12:23:54.722Z,15.90
2018-08-20T12:26:24.295Z,15.20
2018-08-20T12:28:53.834Z,13.80
2018-08-20T12:31:23.425Z,13.10
2018-08-20T12:33:53.598Z,12.20
2018-08-20T12:36:22.917Z,12.60
2018-08-20T12:38:53.667Z,12.10
2018-08-20T12:41:23.914Z,12.40
2018-08-20T12:43:53.195Z,12.80
2018-08-20T12:46:22.499Z,12.60
2018-08-20T12:48:53.281Z,11.50
2018-08-20T12:51:22.887Z,11.80
2018-08-20T12:53:52.369Z,11.10
2018-08-20T12:56:22.592Z,11.20
2018-08-20T12:58:53.260Z,10.80
2018-08-20T13:01:24.418Z,10.30
2018-08-20T13:03:53.905Z,10.80
2018-08-20T13:06:23.210Z,11.20
2018-08-20T13:08:52.911Z,10.60
2018-08-20T13:11:22.223Z,10.70
2018-08-20T13:13:51.666Z,10.30
2018-08-20T13:16:21.047Z,10.00
2018-08-20T13:18:50.286Z,9.90
2018-08-20T13:21:19.588Z,9.60
2018-08-20T13:23:52.482Z,9.60
2018-08-20T13:26:22.729Z,9.60
2018-08-20T13:28:52.599Z,10.00
2018-08-20T13:31:22.760Z,10.70
2018-08-20T13:33:54.292Z,10.40
2018-08-20T13:36:23.745Z,8.20
2018-08-20T13:38:53.080Z,8.10
2018-08-20T13:41:22.679Z,7.60
2018-08-20T13:43:53.076Z,7.20
2018-08-20T13:46:22.419Z,5.50
2018-08-20T13:48:51.684Z,4.60
2018-08-20T13:51:21.004Z,4.80
2018-08-20T13:53:52.558Z,5.60
2018-08-20T13:56:25.309Z,5.20
2018-08-20T13:58:55.340Z,3.60
2018-08-20T14:01:30.572Z,4.20
2018-08-20T14:04:01.057Z,4.40
2018-08-20T14:06:30.878Z,5.70
2018-08-20T14:09:01.348Z,4.80
2018-08-20T14:11:30.593Z,5.40
2018-08-20T14:13:59.892Z,5.30
2018-08-20T14:16:29.497Z,2.60
2018-08-20T14:18:59.442Z,1.30
2018-08-20T14:21:28.682Z,1.70
2018-08-20T14:23:59.002Z,3.90
2018-08-20T14:26:28.262Z,3.90
2018-08-20T14:28:57.536Z,4.70
2018-08-20T14:31:27.505Z,4.20
2018-08-20T14:33:56.918Z,2.90
2018-08-20T14:36:26.660Z,1.70
2018-08-20T14:38:55.900Z,1.00
2018-08-20T14:41:25.126Z,1.00
2018-08-20T14:43:55.595Z,1.00
2018-08-20T14:46:24.848Z,1.00
2018-08-20T14:48:55.085Z,1.00
2018-08-20T14:51:24.322Z,2.30
2018-08-20T14:53:54.798Z,1.80
2018-08-20T14:56:25.102Z,1.00
2018-08-20T14:58:54.409Z,1.00
2018-08-20T15:01:23.611Z,1.00
2018-08-20T15:03:58.841Z,1.00
2018-08-20T15:06:29.787Z,1.00
2018-08-20T15:08:59.479Z,1.00
2018-08-20T15:11:28.635Z,1.00
2018-08-20T15:14:00.675Z,1.00
2018-08-20T15:16:31.818Z,1.00
2018-08-20T15:19:05.405Z,1.00
2018-08-20T15:21:34.784Z,1.90
2018-08-20T15:24:04.214Z,3.00
2018-08-20T15:26:33.448Z,4.20
2018-08-20T15:29:08.665Z,4.60
2018-08-20T15:31:37.847Z,4.40
2018-08-20T15:34:08.103Z,4.50
2018-08-20T15:36:39.594Z,2.60
2018-08-20T15:39:10.569Z,1.50
2018-08-20T15:41:41.039Z,1.40
2018-08-20T15:44:15.031Z,1.00
2018-08-20T15:46:46.870Z,1.00
2018-08-20T15:49:17.318Z,1.00
2018-08-20T15:51:48.631Z,2.70
2018-08-20T15:54:25.149Z,4.00
2018-08-20T15:56:59.615Z,5.30
2018-08-20T15:59:36.007Z,6.40
2018-08-20T16:02:26.439Z,8.40
2018-08-20T16:05:26.979Z,9.20
2018-08-20T16:07:56.897Z,9.40
2018-08-20T16:10:34.320Z,9.90
2018-08-20T16:13:04.684Z,10.50
2018-08-20T16:15:35.271Z,10.60
2018-08-20T16:18:06.652Z,10.90
2018-08-20T16:20:35.924Z,12.00
2018-08-20T16:23:06.961Z,11.70
2018-08-20T16:25:36.733Z,12.00
2018-08-20T16:28:07.406Z,12.20
2018-08-20T16:30:36.816Z,12.60
2018-08-20T16:33:11.979Z,12.60
2018-08-20T16:35:42.798Z,13.20
2018-08-20T16:38:13.169Z,12.70
2018-08-20T16:40:43.718Z,13.30
2018-08-20T16:43:13.003Z,13.30
2018-08-20T16:45:42.342Z,13.50
2018-08-20T16:48:11.656Z,14.40
2018-08-20T16:50:42.607Z,14.40
2018-08-20T16:53:13.028Z,14.40
2018-08-20T16:55:43.987Z,14.50
2018-08-20T16:58:13.645Z,14.80
2018-08-20T17:00:54.144Z,14.40
2018-08-20T17:03:31.529Z,14.70
2018-08-20T17:06:09.145Z,15.00
2018-08-20T17:08:41.984Z,15.40
2018-08-20T17:13:51.567Z,16.00
2018-08-20T17:16:26.309Z,16.20
2018-08-20T17:38:31.763Z,17.60
2018-08-20T17:41:01.058Z,18.50
2018-08-20T17:43:33.878Z,18.40
2018-08-20T17:46:03.349Z,18.20
2018-08-20T17:48:41.877Z,18.50
2018-08-20T17:51:13.102Z,18.90
2018-08-20T17:53:58.684Z,19.10
2018-08-20T17:56:29.187Z,19.30
2018-08-20T17:59:06.726Z,19.70
2018-08-20T18:01:37.327Z,19.60
2018-08-20T18:04:10.353Z,19.80
2018-08-20T18:06:49.080Z,20.10
2018-08-20T18:09:19.539Z,21.00
2018-08-20T18:11:51.216Z,20.50
2018-08-20T18:14:22.265Z,20.90
2018-08-20T18:16:51.651Z,20.90
2018-08-20T18:19:21.192Z,21.10
2018-08-20T18:21:50.533Z,21.30
2018-08-20T18:24:39.130Z,21.60
2018-08-20T18:27:09.274Z,22.10
2018-08-20T18:29:39.446Z,22.00
2018-08-20T18:32:10.706Z,22.00
2018-08-20T18:34:40.667Z,22.30
2018-08-20T18:37:09.912Z,22.80
2018-08-20T18:39:39.441Z,22.70
2018-08-20T18:42:11.303Z,23.30
2018-08-20T18:44:44.673Z,24.00
2018-08-20T18:47:16.772Z,23.40
2018-08-20T18:49:53.223Z,25.10
2018-08-20T18:52:23.427Z,26.20
2018-08-20T18:54:54.994Z,27.80
2018-08-20T18:57:30.034Z,28.90
2018-08-20T19:00:01.745Z,29.80
2018-08-20T19:02:39.008Z,31.10
2018-08-20T19:05:14.166Z,32.20
2018-08-20T19:07:45.228Z,32.80
2018-08-20T19:10:29.318Z,34.20
2018-08-20T19:12:58.939Z,34.70
2018-08-20T19:15:33.254Z,36.00
2018-08-20T19:18:03.512Z,36.60
2018-08-20T19:20:33.573Z,37.50
2018-08-20T19:23:03.015Z,39.00
2018-08-20T19:25:35.535Z,40.00
2018-08-20T19:30:55.846Z,41.70
2018-08-20T19:33:35.430Z,42.00
2018-08-20T19:36:14.544Z,42.40
2018-08-20T19:38:51.436Z,43.40
2018-08-20T19:41:24.246Z,43.70
2018-08-20T19:44:03.178Z,44.30
2018-08-20T19:46:46.282Z,44.60
2018-08-20T19:49:24.849Z,45.40
2018-08-20T19:51:55.709Z,46.10
2018-08-20T19:54:31.808Z,46.30
2018-08-20T19:57:07.357Z,46.10
2018-08-20T19:59:39.623Z,47.60
2018-08-20T20:02:13.165Z,47.90
2018-08-20T20:04:53.482Z,48.60
2018-08-20T20:07:23.853Z,49.30
2018-08-20T20:09:53.284Z,49.60
2018-08-20T20:12:23.435Z,50.20
2018-08-20T20:14:52.840Z,50.20
2018-08-20T20:17:25.506Z,50.90
2018-08-20T20:19:54.787Z,51.10
2018-08-20T20:22:25.281Z,51.50
2018-08-20T20:24:58.591Z,51.50
2018-08-20T20:27:28.043Z,51.70
2018-08-20T20:29:57.685Z,52.40
2018-08-20T20:32:30.481Z,53.00
2018-08-20T20:35:19.528Z,53.90
2018-08-20T20:37:52.402Z,54.30
2018-08-20T20:40:21.637Z,55.10
2018-08-20T20:42:51.900Z,55.50
2018-08-20T20:45:21.394Z,56.40
2018-08-20T20:47:52.625Z,56.40
2018-08-20T20:50:22.020Z,56.20
2018-08-20T20:52:52.052Z,56.80
2018-08-20T20:55:29.717Z,56.50
2018-08-20T20:58:00.952Z,56.60
2018-08-20T21:00:30.557Z,56.20
2018-08-20T21:03:07.370Z,56.30
2018-08-20T21:05:36.573Z,56.60
2018-08-20T21:08:06.554Z,56.90
2018-08-20T21:10:45.199Z,57.40
2018-08-20T21:13:14.492Z,57.90
2018-08-20T21:15:53.415Z,58.40
2018-08-20T21:18:24.779Z,59.20
2018-08-20T21:20:54.471Z,60.70
2018-08-20T21:23:24.894Z,62.30
2018-08-20T21:25:54.563Z,62.40
2018-08-20T21:28:28.824Z,63.20
2018-08-20T21:30:58.424Z,63.50
2018-08-20T21:33:27.865Z,65.10
2018-08-20T21:35:57.334Z,65.70
2018-08-20T21:38:27.138Z,64.70
2018-08-20T21:40:56.359Z,62.60
2018-08-20T21:43:27.198Z,63.00
2018-08-20T21:45:57.139Z,64.50
2018-08-20T21:48:26.412Z,66.20
2018-08-20T21:50:56.776Z,66.30
2018-08-20T21:53:32.072Z,66.30
2018-08-20T21:56:01.363Z,66.90
2018-08-20T21:58:32.671Z,67.50
2018-08-20T22:01:03.324Z,68.20
2018-08-20T22:03:32.684Z,67.70
2018-08-20T22:06:02.843Z,67.90
2018-08-20T22:08:32.734Z,68.20
2018-08-20T22:11:02.552Z,68.50
2018-08-20T22:13:35.327Z,70.00
2018-08-20T22:16:20.165Z,70.80
2018-08-20T22:18:55.766Z,70.90
2018-08-20T22:21:25.249Z,70.60
2018-08-20T22:23:58.103Z,71.70
2018-08-20T22:26:27.527Z,72.40
2018-08-20T22:28:57.241Z,71.70
2018-08-20T22:31:26.500Z,70.40
2018-08-20T22:34:03.200Z,70.40
2018-08-20T22:36:33.810Z,71.00
2018-08-20T22:39:04.928Z,71.40
2018-08-20T22:41:34.225Z,71.50
2018-08-20T22:44:03.633Z,70.80
2018-08-20T22:46:32.887Z,71.50
2018-08-20T22:49:02.361Z,72.30
2018-08-20T22:51:31.658Z,73.30
2018-08-20T22:54:02.494Z,74.00
2018-08-20T22:56:34.196Z,74.90
2018-08-20T22:59:06.139Z,75.60
2018-08-20T23:01:36.064Z,76.30
2018-08-20T23:04:05.866Z,76.60
2018-08-20T23:06:35.256Z,78.10
2018-08-20T23:09:20.923Z,77.60
2018-08-20T23:11:51.195Z,77.20
2018-08-20T23:14:21.949Z,78.50
2018-08-20T23:16:52.915Z,78.00
2018-08-20T23:19:22.574Z,77.30
2018-08-20T23:21:54.614Z,78.80
2018-08-20T23:24:24.043Z,80.00
2018-08-20T23:26:54.165Z,80.90
2018-08-20T23:29:23.375Z,81.30
2018-08-20T23:31:52.944Z,81.30
2018-08-20T23:34:28.447Z,80.90
2018-08-20T23:37:01.310Z,80.90
2018-08-20T23:39:30.527Z,79.40
2018-08-20T23:42:00.011Z,80.80
2018-08-20T23:44:30.413Z,81.20
2018-08-20T23:46:59.669Z,81.50
2018-08-20T23:49:28.910Z,80.80
2018-08-20T23:51:58.222Z,81.70
2018-08-20T23:54:27.842Z,82.30
2018-08-20T23:56:57.914Z,81.50
2018-08-20T23:59:27.244Z,80.40
